Trujillo, Spain
Current Conditions -  °F | °C
As of 8:00 PM on Sunday 23 Nov 2014 (Local Time) from LEBZ Reporting Station
Moderate Rain Moderate Rain  
Wind Chill: 59°   Ceiling: 4900
Heat Index: 59°   Visibility: 4mi
Dew Point: 55°   Wind: 5mph
Humidity: 88%   Direction: 160°SSE
Pressure: 29.85"   Gusts: NA
Location:  39.46°N, 5.88°W
Report Text: LEBZ 231900Z 16004KT 7000 RA SCT038 BKN049 15/13 Q1011
Loading
Personal Weather Stations






























Interactive Weather Map New forecast layout! Learn more

10-Day Weather Forecast

Advertisements
Track Severe Weather on mobile